createdAt,value
2023-05-14T00:00:41.955Z,18.06
2023-05-14T00:03:10.449Z,18.07
2023-05-14T00:05:38.532Z,18.06
2023-05-14T00:08:07.078Z,18.07
2023-05-14T00:10:35.526Z,18.04
2023-05-14T00:13:03.607Z,18.06
2023-05-14T00:15:34.091Z,18.05
2023-05-14T00:18:04.657Z,18.04
2023-05-14T00:20:32.879Z,18.05
2023-05-14T00:23:01.143Z,18.05
2023-05-14T00:25:29.838Z,18.05
2023-05-14T00:27:57.930Z,18.07
2023-05-14T00:30:26.428Z,18.08
2023-05-14T00:32:55.053Z,18.08
2023-05-14T00:35:24.871Z,18.09
2023-05-14T00:37:53.824Z,18.10
2023-05-14T00:40:26.680Z,18.10
2023-05-14T00:42:55.177Z,18.08
2023-05-14T00:45:23.936Z,18.09
2023-05-14T00:47:52.850Z,18.11
2023-05-14T00:50:24.725Z,18.09
2023-05-14T00:52:54.849Z,18.08
2023-05-14T00:55:23.715Z,18.09
2023-05-14T00:57:52.221Z,18.12
2023-05-14T01:00:21.106Z,18.16
2023-05-14T01:02:49.756Z,18.19
2023-05-14T01:05:18.512Z,18.23
2023-05-14T01:07:56.812Z,18.23
2023-05-14T01:10:33.700Z,18.24
2023-05-14T01:13:09.585Z,18.21
2023-05-14T01:15:39.074Z,18.21
2023-05-14T01:18:09.900Z,18.23
2023-05-14T01:20:38.648Z,18.21
2023-05-14T01:23:08.148Z,18.21
2023-05-14T01:25:36.749Z,18.22
2023-05-14T01:28:13.118Z,18.24
2023-05-14T01:30:47.049Z,18.21
2023-05-14T01:33:18.303Z,18.21
2023-05-14T01:35:47.126Z,18.28
2023-05-14T01:38:20.134Z,18.30
2023-05-14T01:40:50.023Z,18.32
2023-05-14T01:43:18.438Z,18.35
2023-05-14T01:45:46.703Z,18.37
2023-05-14T01:48:15.893Z,18.38
2023-05-14T01:50:43.969Z,18.39
2023-05-14T01:53:12.201Z,18.42
2023-05-14T01:55:42.326Z,18.43
2023-05-14T01:58:10.937Z,18.44
2023-05-14T02:00:39.342Z,18.44
2023-05-14T02:03:07.765Z,18.47
2023-05-14T02:05:35.869Z,18.48
2023-05-14T02:08:04.074Z,18.50
2023-05-14T02:10:33.789Z,18.49
2023-05-14T02:13:04.456Z,18.52
2023-05-14T02:15:32.630Z,18.48
2023-05-14T02:18:00.780Z,18.49
2023-05-14T02:20:29.274Z,18.51
2023-05-14T02:22:57.522Z,18.55
2023-05-14T02:25:25.762Z,18.51
2023-05-14T02:27:54.264Z,18.52
2023-05-14T02:30:24.092Z,18.52
2023-05-14T02:32:52.583Z,18.51
2023-05-14T02:35:22.936Z,18.51
2023-05-14T02:37:51.189Z,18.51
2023-05-14T02:40:19.641Z,18.50
2023-05-14T02:42:48.055Z,18.50
2023-05-14T02:45:16.284Z,18.50
2023-05-14T02:47:46.299Z,18.50
2023-05-14T02:50:15.191Z,18.46
2023-05-14T02:52:43.526Z,18.48
2023-05-14T02:55:11.804Z,18.58
2023-05-14T02:57:40.344Z,18.59
2023-05-14T03:00:10.186Z,18.58
2023-05-14T03:02:38.953Z,18.50
2023-05-14T03:05:09.907Z,18.50
2023-05-14T03:07:38.201Z,18.48
2023-05-14T03:10:07.409Z,18.46
2023-05-14T03:12:35.863Z,18.45
2023-05-14T03:15:04.221Z,18.47
2023-05-14T03:17:32.738Z,18.48
2023-05-14T03:20:01.037Z,18.55
2023-05-14T03:22:30.752Z,18.53
2023-05-14T03:24:58.782Z,18.44
2023-05-14T03:27:27.189Z,18.42
2023-05-14T03:29:55.389Z,18.42
2023-05-14T03:32:23.576Z,18.48
2023-05-14T03:34:51.946Z,18.44
2023-05-14T03:37:20.030Z,18.45
2023-05-14T03:39:49.434Z,18.47
2023-05-14T03:42:17.863Z,18.48
2023-05-14T03:44:46.183Z,18.50
2023-05-14T03:47:14.389Z,18.52
2023-05-14T03:49:42.794Z,18.53
2023-05-14T03:52:11.519Z,18.55
2023-05-14T03:54:41.323Z,18.58
2023-05-14T03:57:11.067Z,18.60
2023-05-14T03:59:39.149Z,18.57
2023-05-14T04:02:07.223Z,18.53
2023-05-14T04:04:36.067Z,18.54
2023-05-14T04:07:04.511Z,18.55
2023-05-14T04:09:32.700Z,18.57
2023-05-14T04:12:01.077Z,18.58
2023-05-14T04:14:30.749Z,18.58
2023-05-14T04:17:00.283Z,18.63
2023-05-14T04:19:28.846Z,18.70
2023-05-14T04:21:57.000Z,18.76
2023-05-14T04:24:25.056Z,18.76
2023-05-14T04:26:53.442Z,18.73
2023-05-14T04:29:21.567Z,18.75
2023-05-14T04:31:51.605Z,18.78
2023-05-14T04:34:20.057Z,18.75
2023-05-14T04:36:48.168Z,18.70
2023-05-14T04:39:16.204Z,18.68
2023-05-14T04:41:44.452Z,18.67
2023-05-14T04:44:14.149Z,18.66
2023-05-14T04:46:42.245Z,18.70
2023-05-14T04:49:11.746Z,18.78
2023-05-14T04:51:39.945Z,18.85
2023-05-14T04:54:08.162Z,18.88
2023-05-14T04:56:36.656Z,19.06
2023-05-14T04:59:04.784Z,19.13
2023-05-14T05:01:33.102Z,19.17
2023-05-14T05:04:01.514Z,19.26
2023-05-14T05:06:31.630Z,19.35
2023-05-14T05:09:01.990Z,19.37
2023-05-14T05:11:30.789Z,19.42
2023-05-14T05:13:58.832Z,19.52
2023-05-14T05:16:27.064Z,19.57
2023-05-14T05:18:55.599Z,19.63
2023-05-14T05:21:23.711Z,19.71
2023-05-14T05:23:53.224Z,19.78
2023-05-14T05:26:22.114Z,19.82
2023-05-14T05:28:50.199Z,19.93
2023-05-14T05:31:19.981Z,20.07
2023-05-14T05:33:48.833Z,20.15
2023-05-14T05:36:16.906Z,20.20
2023-05-14T05:38:44.975Z,20.28
2023-05-14T05:41:14.667Z,20.36
2023-05-14T05:43:42.723Z,20.33
2023-05-14T05:46:10.892Z,20.33
2023-05-14T05:48:39.338Z,20.48
2023-05-14T05:51:07.558Z,20.62
2023-05-14T05:53:35.565Z,20.76
2023-05-14T05:56:03.834Z,20.86
2023-05-14T05:58:33.249Z,20.97
2023-05-14T06:01:01.627Z,21.03
2023-05-14T06:03:30.034Z,21.21
2023-05-14T06:05:58.031Z,21.30
2023-05-14T06:08:26.313Z,21.30
2023-05-14T06:10:54.686Z,21.39
2023-05-14T06:13:25.720Z,21.51
2023-05-14T06:15:55.104Z,21.65
2023-05-14T06:18:23.313Z,21.69
2023-05-14T06:20:51.413Z,21.76
2023-05-14T06:23:19.357Z,21.79
2023-05-14T06:25:49.446Z,21.92
2023-05-14T06:28:18.633Z,22.01
2023-05-14T06:30:46.743Z,21.96
2023-05-14T06:33:17.371Z,21.95
2023-05-14T06:35:46.624Z,21.92
2023-05-14T06:38:14.981Z,21.98
2023-05-14T06:40:43.084Z,22.19
2023-05-14T06:43:11.797Z,22.38
2023-05-14T06:45:51.546Z,22.62
2023-05-14T06:48:23.023Z,22.68
2023-05-14T06:50:51.966Z,22.74
2023-05-14T06:53:20.020Z,22.93
2023-05-14T06:55:48.731Z,22.95
2023-05-14T06:58:17.352Z,23.09
2023-05-14T07:00:45.409Z,23.02
2023-05-14T07:03:13.440Z,23.06
2023-05-14T07:05:44.958Z,23.14
2023-05-14T07:08:13.138Z,23.27
2023-05-14T07:10:41.656Z,23.40
2023-05-14T07:13:09.733Z,23.51
2023-05-14T07:15:37.760Z,23.63
2023-05-14T07:18:06.369Z,23.79
2023-05-14T07:20:34.709Z,23.92
2023-05-14T07:23:04.217Z,24.04
2023-05-14T07:25:33.324Z,24.12
2023-05-14T07:28:01.724Z,24.08
2023-05-14T07:30:29.925Z,24.11
2023-05-14T07:32:58.442Z,24.27
2023-05-14T07:35:26.796Z,24.40
2023-05-14T07:37:55.115Z,24.59
2023-05-14T07:40:26.067Z,24.68
2023-05-14T07:42:54.636Z,24.84
2023-05-14T07:45:24.058Z,25.00
2023-05-14T07:47:52.961Z,25.18
2023-05-14T07:50:22.362Z,25.05
2023-05-14T07:52:50.960Z,25.12
2023-05-14T07:55:19.753Z,25.23
2023-05-14T07:57:49.186Z,25.38
2023-05-14T08:00:18.074Z,25.45
2023-05-14T08:02:46.760Z,25.56
2023-05-14T08:05:15.368Z,25.60
2023-05-14T08:07:43.620Z,25.60
2023-05-14T08:10:12.390Z,25.67
2023-05-14T08:12:40.562Z,25.74
2023-05-14T08:15:11.517Z,25.72
2023-05-14T08:17:40.047Z,25.90
2023-05-14T08:20:09.861Z,26.14
2023-05-14T08:22:38.068Z,26.31
2023-05-14T08:25:07.843Z,26.38
2023-05-14T08:27:36.106Z,26.50
2023-05-14T08:30:04.513Z,26.61
2023-05-14T08:32:34.325Z,26.66
2023-05-14T08:35:02.724Z,26.55
2023-05-14T08:37:30.807Z,26.43
2023-05-14T08:39:59.348Z,26.54
2023-05-14T08:42:28.229Z,26.63
2023-05-14T08:45:01.941Z,26.78
2023-05-14T08:47:31.930Z,26.62
2023-05-14T08:50:04.959Z,26.74
2023-05-14T08:52:34.391Z,26.89
2023-05-14T08:55:04.906Z,27.05
2023-05-14T08:57:35.153Z,27.12
2023-05-14T09:00:06.891Z,27.09
2023-05-14T09:02:36.601Z,26.79
2023-05-14T09:05:07.415Z,26.92
2023-05-14T09:07:36.001Z,27.13
2023-05-14T09:10:04.882Z,27.31
2023-05-14T09:12:33.189Z,27.27
2023-05-14T09:15:01.486Z,27.35
2023-05-14T09:17:29.810Z,27.53
2023-05-14T09:19:58.036Z,27.58
2023-05-14T09:22:31.871Z,27.51
2023-05-14T09:25:05.506Z,27.55
2023-05-14T09:27:34.809Z,27.55
2023-05-14T09:30:07.930Z,27.31
2023-05-14T09:32:38.167Z,27.50
2023-05-14T09:35:18.150Z,27.62
2023-05-14T09:37:54.963Z,27.69
2023-05-14T09:40:25.112Z,27.86
2023-05-14T09:42:53.784Z,27.93
2023-05-14T09:45:25.304Z,28.26
2023-05-14T09:47:55.306Z,28.61
2023-05-14T09:50:23.775Z,28.98
2023-05-14T09:52:56.434Z,29.33
2023-05-14T09:55:25.028Z,29.51
2023-05-14T09:57:53.328Z,29.74
2023-05-14T10:00:22.764Z,29.97
2023-05-14T10:02:53.472Z,29.80
2023-05-14T10:05:24.779Z,29.87
2023-05-14T10:07:55.575Z,29.82
2023-05-14T10:10:27.752Z,29.98
2023-05-14T10:12:59.801Z,30.27
2023-05-14T10:15:33.128Z,30.30
2023-05-14T10:18:05.354Z,29.97
2023-05-14T10:20:33.866Z,29.64
2023-05-14T10:23:03.992Z,29.44
2023-05-14T10:25:33.910Z,29.12
2023-05-14T10:28:08.019Z,28.78
2023-05-14T10:30:36.223Z,28.56
2023-05-14T10:33:09.379Z,28.41
2023-05-14T10:36:01.977Z,28.21
2023-05-14T10:38:34.310Z,27.98
2023-05-14T10:41:04.448Z,27.84
2023-05-14T10:43:38.483Z,27.72
2023-05-14T10:46:08.180Z,27.64
2023-05-14T10:48:38.672Z,27.72
2023-05-14T10:51:10.068Z,27.68
2023-05-14T10:53:41.357Z,27.75
2023-05-14T10:56:11.009Z,27.80
2023-05-14T10:58:40.330Z,27.76
2023-05-14T11:01:10.264Z,27.70
2023-05-14T11:03:43.821Z,27.69
2023-05-14T11:06:14.482Z,27.61
2023-05-14T11:08:46.692Z,27.60
2023-05-14T11:11:15.491Z,27.57
2023-05-14T11:13:43.942Z,27.53
2023-05-14T11:16:22.575Z,27.53
2023-05-14T11:19:03.526Z,27.51
2023-05-14T11:21:32.584Z,27.44
2023-05-14T11:24:03.833Z,27.49
2023-05-14T11:26:32.938Z,27.54
2023-05-14T11:29:01.382Z,27.61
2023-05-14T11:31:29.591Z,27.70
2023-05-14T11:33:58.050Z,27.70
2023-05-14T11:36:29.149Z,27.68
2023-05-14T11:38:57.165Z,27.67
2023-05-14T11:41:28.105Z,27.72
2023-05-14T11:43:56.547Z,27.84
2023-05-14T11:46:25.965Z,27.99
2023-05-14T11:48:54.073Z,28.18
2023-05-14T11:51:23.057Z,28.25
2023-05-14T11:53:51.146Z,28.30
2023-05-14T11:56:19.281Z,28.40
2023-05-14T11:58:56.906Z,28.52
2023-05-14T12:01:25.708Z,28.51
2023-05-14T12:03:54.439Z,28.50
2023-05-14T12:06:22.589Z,28.55
2023-05-14T12:08:50.798Z,28.54
2023-05-14T12:11:22.096Z,28.66
2023-05-14T12:13:50.275Z,28.69
2023-05-14T12:16:21.944Z,28.52
2023-05-14T12:18:50.139Z,28.26
2023-05-14T12:21:18.481Z,28.40
2023-05-14T12:23:47.382Z,28.50
2023-05-14T12:26:15.662Z,28.67
2023-05-14T12:28:44.184Z,28.51
2023-05-14T12:31:13.249Z,28.30
2023-05-14T12:33:42.944Z,28.57
2023-05-14T12:36:21.089Z,28.59
2023-05-14T12:38:50.810Z,28.68
2023-05-14T12:41:19.357Z,28.79
2023-05-14T12:43:49.275Z,28.99
2023-05-14T12:46:17.561Z,29.13
2023-05-14T12:48:47.373Z,29.31
2023-05-14T12:51:15.678Z,29.56
2023-05-14T12:53:43.940Z,29.55
2023-05-14T12:56:12.872Z,29.65
2023-05-14T12:58:41.232Z,29.71
2023-05-14T13:01:09.642Z,29.89
2023-05-14T13:03:38.116Z,30.02
2023-05-14T13:06:08.126Z,30.07
2023-05-14T13:08:36.526Z,30.21
2023-05-14T13:11:04.996Z,30.46
2023-05-14T13:13:33.081Z,30.70
2023-05-14T13:16:01.180Z,30.84
2023-05-14T13:18:29.625Z,30.89
2023-05-14T13:20:57.773Z,31.19
2023-05-14T13:23:27.401Z,31.38
2023-05-14T13:25:55.823Z,31.49
2023-05-14T13:28:23.862Z,31.30
2023-05-14T13:31:06.489Z,30.88
2023-05-14T13:33:36.941Z,30.90
2023-05-14T13:36:05.839Z,30.83
2023-05-14T13:38:35.636Z,30.27
2023-05-14T13:41:04.083Z,30.18
2023-05-14T13:43:33.684Z,30.41
2023-05-14T13:46:06.052Z,30.63
2023-05-14T13:48:41.178Z,30.14
2023-05-14T13:51:09.534Z,30.03
2023-05-14T13:53:39.165Z,30.15
2023-05-14T13:56:08.661Z,30.10
2023-05-14T13:58:36.886Z,30.02
2023-05-14T14:01:05.430Z,30.10
2023-05-14T14:03:33.788Z,30.26
2023-05-14T14:06:01.774Z,30.33
2023-05-14T14:08:31.121Z,30.38
2023-05-14T14:11:02.067Z,30.34
2023-05-14T14:13:30.499Z,30.33
2023-05-14T14:15:58.800Z,30.30
2023-05-14T14:18:28.279Z,30.30
2023-05-14T14:20:56.501Z,30.22
2023-05-14T14:23:24.763Z,30.21
2023-05-14T14:25:54.345Z,30.19
2023-05-14T14:28:27.056Z,30.10
2023-05-14T14:30:55.486Z,30.17
2023-05-14T14:33:23.539Z,30.29
2023-05-14T14:35:51.751Z,30.43
2023-05-14T14:38:20.322Z,30.51
2023-05-14T14:40:49.705Z,30.65
2023-05-14T14:43:20.770Z,30.52
2023-05-14T14:45:50.680Z,30.52
2023-05-14T14:48:31.391Z,30.59
2023-05-14T14:51:01.025Z,30.27
2023-05-14T14:53:29.216Z,30.37
2023-05-14T14:55:58.111Z,30.57
2023-05-14T14:58:26.608Z,31.23
2023-05-14T15:00:57.500Z,32.09
2023-05-14T15:03:26.355Z,32.76
2023-05-14T15:05:54.943Z,33.21
2023-05-14T15:08:31.472Z,33.29
2023-05-14T15:11:00.371Z,33.08
2023-05-14T15:13:29.322Z,33.04
2023-05-14T15:15:58.779Z,33.19
2023-05-14T15:18:27.311Z,32.94
2023-05-14T15:20:55.833Z,32.74
2023-05-14T15:23:24.050Z,33.35
2023-05-14T15:25:52.418Z,33.96
2023-05-14T15:28:20.600Z,34.56
2023-05-14T15:30:48.995Z,34.77
2023-05-14T15:33:19.700Z,35.17
2023-05-14T15:35:48.037Z,35.48
2023-05-14T15:38:16.256Z,35.62
2023-05-14T15:40:45.130Z,35.87
2023-05-14T15:43:13.382Z,35.97
2023-05-14T15:45:41.494Z,36.21
2023-05-14T15:48:13.368Z,36.37
2023-05-14T15:50:44.122Z,36.35
2023-05-14T15:53:12.860Z,36.53
2023-05-14T15:55:41.003Z,36.49
2023-05-14T15:58:09.082Z,36.21
2023-05-14T16:00:37.576Z,36.43
2023-05-14T16:03:06.345Z,36.54
2023-05-14T16:05:34.654Z,36.60
2023-05-14T16:08:04.394Z,36.53
2023-05-14T16:10:32.859Z,36.59
2023-05-14T16:13:00.974Z,36.62
2023-05-14T16:15:29.745Z,36.51
2023-05-14T16:17:58.195Z,36.58
2023-05-14T16:20:26.298Z,36.57
2023-05-14T16:22:54.568Z,36.68
2023-05-14T16:25:24.481Z,36.87
2023-05-14T16:27:52.916Z,36.98
2023-05-14T16:30:21.661Z,36.95
2023-05-14T16:32:50.387Z,36.83
2023-05-14T16:35:18.873Z,36.70
2023-05-14T16:37:47.182Z,36.66
2023-05-14T16:40:16.474Z,36.65
2023-05-14T16:42:48.491Z,36.70
2023-05-14T16:45:18.029Z,36.69
2023-05-14T16:47:46.352Z,36.70
2023-05-14T16:50:14.732Z,36.93
2023-05-14T16:52:43.355Z,37.20
2023-05-14T16:55:11.555Z,37.42
2023-05-14T16:57:39.647Z,37.63
2023-05-14T17:00:10.992Z,37.61
2023-05-14T17:02:39.474Z,37.51
2023-05-14T17:05:08.861Z,37.26
2023-05-14T17:07:38.516Z,37.10
2023-05-14T17:10:08.028Z,36.94
2023-05-14T17:12:36.428Z,36.84
2023-05-14T17:15:05.610Z,36.86
2023-05-14T17:17:35.468Z,36.69
2023-05-14T17:20:05.899Z,36.54
2023-05-14T17:22:34.215Z,36.30
2023-05-14T17:25:02.509Z,36.25
2023-05-14T17:27:33.278Z,36.11
2023-05-14T17:30:01.506Z,36.02
2023-05-14T17:32:31.580Z,35.85
2023-05-14T17:35:01.381Z,35.82
2023-05-14T17:37:30.475Z,35.79
2023-05-14T17:40:02.382Z,35.57
2023-05-14T17:42:31.141Z,35.29
2023-05-14T17:45:00.069Z,35.00
2023-05-14T17:47:28.518Z,34.64
2023-05-14T17:49:58.752Z,33.90
2023-05-14T17:52:29.974Z,32.98
2023-05-14T17:54:58.890Z,32.17
2023-05-14T17:57:31.171Z,31.44
2023-05-14T17:59:59.659Z,30.85
2023-05-14T18:02:31.971Z,30.33
2023-05-14T18:05:04.905Z,29.87
2023-05-14T18:07:36.562Z,29.40
2023-05-14T18:10:05.634Z,28.95
2023-05-14T18:12:33.708Z,28.59
2023-05-14T18:15:01.731Z,28.24
2023-05-14T18:17:30.405Z,27.93
2023-05-14T18:20:00.217Z,27.63
2023-05-14T18:22:28.319Z,27.37
2023-05-14T18:24:57.993Z,27.23
2023-05-14T18:27:26.456Z,27.19
2023-05-14T18:29:54.949Z,27.04
2023-05-14T18:32:23.543Z,26.74
2023-05-14T18:34:51.642Z,26.48
2023-05-14T18:37:20.632Z,26.23
2023-05-14T18:39:49.218Z,26.01
2023-05-14T18:42:18.861Z,25.77
2023-05-14T18:44:46.862Z,25.54
2023-05-14T18:47:16.234Z,25.30
2023-05-14T18:49:47.072Z,25.06
2023-05-14T18:52:15.713Z,24.94
2023-05-14T18:54:43.958Z,24.96
2023-05-14T18:57:13.544Z,25.00
2023-05-14T18:59:43.428Z,24.95
2023-05-14T19:02:11.742Z,24.83
2023-05-14T19:04:51.785Z,24.69
2023-05-14T19:07:21.588Z,24.48
2023-05-14T19:09:50.303Z,24.34
2023-05-14T19:12:18.371Z,24.27
2023-05-14T19:14:47.874Z,24.08
2023-05-14T19:17:17.769Z,23.87
2023-05-14T19:19:47.359Z,23.65
2023-05-14T19:22:15.724Z,23.49
2023-05-14T19:24:43.904Z,23.34
2023-05-14T19:27:13.743Z,23.22
2023-05-14T19:29:42.010Z,23.10
2023-05-14T19:32:11.911Z,23.03
2023-05-14T19:34:40.051Z,22.91
2023-05-14T19:37:08.519Z,22.82
2023-05-14T19:39:36.632Z,22.73
2023-05-14T19:42:05.214Z,22.63
2023-05-14T19:44:33.710Z,22.57
2023-05-14T19:47:02.048Z,22.44
2023-05-14T19:49:31.527Z,22.36
2023-05-14T19:51:59.985Z,22.29
2023-05-14T19:54:28.075Z,22.23
2023-05-14T19:56:56.317Z,22.18
2023-05-14T19:59:24.846Z,22.08
2023-05-14T20:01:54.518Z,21.99
2023-05-14T20:04:23.131Z,21.89
2023-05-14T20:06:52.638Z,21.76
2023-05-14T20:09:21.201Z,21.59
2023-05-14T20:11:49.499Z,21.47
2023-05-14T20:14:17.536Z,21.37
2023-05-14T20:16:46.991Z,21.29
2023-05-14T20:19:16.443Z,21.21
2023-05-14T20:21:45.728Z,21.15
2023-05-14T20:24:16.339Z,21.09
2023-05-14T20:26:44.857Z,21.03
2023-05-14T20:29:14.487Z,20.97
2023-05-14T20:31:42.701Z,20.86
2023-05-14T20:34:11.113Z,20.78
2023-05-14T20:36:39.079Z,20.67
2023-05-14T20:39:07.555Z,20.59
2023-05-14T20:41:37.204Z,20.53
2023-05-14T20:44:05.437Z,20.46
2023-05-14T20:46:33.521Z,20.35
2023-05-14T20:49:02.901Z,20.29
2023-05-14T20:51:32.665Z,20.22
2023-05-14T20:54:01.042Z,20.17
2023-05-14T20:56:30.446Z,20.10
2023-05-14T20:58:59.976Z,20.00
2023-05-14T21:01:28.442Z,19.92
2023-05-14T21:04:00.171Z,19.81
2023-05-14T21:06:28.710Z,19.71
2023-05-14T21:08:57.089Z,19.59
2023-05-14T21:11:25.141Z,19.56
2023-05-14T21:13:53.636Z,19.53
2023-05-14T21:16:24.067Z,19.49
2023-05-14T21:18:52.614Z,19.42
2023-05-14T21:21:20.772Z,19.35
2023-05-14T21:23:48.970Z,19.32
2023-05-14T21:26:17.122Z,19.26
2023-05-14T21:28:45.269Z,19.22
2023-05-14T21:31:13.760Z,19.14
2023-05-14T21:33:43.273Z,19.10
2023-05-14T21:36:11.859Z,19.06
2023-05-14T21:38:40.457Z,19.03
2023-05-14T21:41:08.753Z,19.02
2023-05-14T21:43:36.840Z,19.00
2023-05-14T21:46:05.400Z,18.98
2023-05-14T21:48:33.577Z,19.01
2023-05-14T21:51:03.118Z,19.01
2023-05-14T21:53:31.394Z,19.02
2023-05-14T21:55:59.418Z,18.99
2023-05-14T21:58:28.106Z,18.95
2023-05-14T22:00:56.422Z,18.93
2023-05-14T22:03:24.921Z,18.88
2023-05-14T22:05:53.234Z,18.91
2023-05-14T22:08:22.803Z,18.88
2023-05-14T22:10:51.283Z,18.82
2023-05-14T22:13:19.365Z,18.79
2023-05-14T22:15:48.317Z,18.77
2023-05-14T22:18:17.205Z,18.71
2023-05-14T22:20:45.247Z,18.67
2023-05-14T22:23:13.280Z,18.66
2023-05-14T22:25:43.809Z,18.67
2023-05-14T22:28:11.846Z,18.68
2023-05-14T22:30:39.997Z,18.65
2023-05-14T22:33:08.317Z,18.64
2023-05-14T22:35:36.570Z,18.58
2023-05-14T22:38:04.636Z,18.55
2023-05-14T22:40:33.133Z,18.52
2023-05-14T22:43:02.821Z,18.52
2023-05-14T22:45:31.722Z,18.48
2023-05-14T22:48:00.214Z,18.42
2023-05-14T22:50:28.397Z,18.33
2023-05-14T22:52:56.383Z,18.26
2023-05-14T22:55:24.919Z,18.20
2023-05-14T22:57:53.262Z,18.19
2023-05-14T23:00:22.809Z,18.19
2023-05-14T23:02:51.158Z,18.15
2023-05-14T23:05:19.509Z,18.11
2023-05-14T23:07:47.577Z,18.05
2023-05-14T23:10:15.978Z,17.93
2023-05-14T23:12:44.873Z,17.79
2023-05-14T23:15:15.851Z,17.73
2023-05-14T23:17:45.843Z,17.68
2023-05-14T23:20:14.105Z,17.63
2023-05-14T23:22:42.302Z,17.56
2023-05-14T23:25:10.905Z,17.52
2023-05-14T23:27:38.969Z,17.49
2023-05-14T23:30:08.181Z,17.47
2023-05-14T23:32:36.632Z,17.41
2023-05-14T23:35:06.828Z,17.36
2023-05-14T23:37:36.848Z,17.26
2023-05-14T23:40:07.266Z,17.16
2023-05-14T23:42:35.382Z,17.12
2023-05-14T23:45:03.606Z,17.12
2023-05-14T23:47:32.383Z,17.14
2023-05-14T23:50:00.624Z,17.17
2023-05-14T23:52:30.079Z,17.21
2023-05-14T23:54:58.441Z,17.23
2023-05-14T23:57:27.251Z,17.18
2023-05-14T23:59:55.417Z,17.06
